Bisha, Saudi Arabia
Current Conditions -  °F | °C
As of 5:00 AM on Friday 21 Nov 2014 (Local Time) from OEBH Reporting Station
Clear Clear  
Wind Chill: 57°   Ceiling: Unl
Heat Index: 57°   Visibility: 6mi
Dew Point: 37°   Wind: 2mph
Humidity: 48%   Direction: 130°SE
Pressure: 30.12"   Gusts: NA
Location:  19.98°N, 42.62°E
Report Text: OEBH 210200Z 13002KT CAVOK 14/03 Q1020 NOSIG
Loading
Personal Weather Stations






























Interactive Weather Map New forecast layout! Learn more

10-Day Weather Forecast

Advertisements
Track Severe Weather on mobile